Crawfordsville, Indiana
Current Conditions -  °F | °C
As of 7:55 AM on Wednesday 26 Nov 2014 (Local Time) from KFKR Reporting Station
Overcast Overcast  
Wind Chill: 19°   Ceiling: 1100
Heat Index: 25°   Visibility: 10mi
Dew Point: 22°   Wind: 6mph
Humidity: 86%   Direction: 80°E
Pressure: 30.16"   Gusts: NA
Location:  40.04°N, 86.9°W
Report Text: KFKR 261255Z AUTO 08005KT 10SM OVC011 M04/M06 A3016 RMK AO2 T10371057
Loading
Personal Weather Stations






























Interactive Weather Map New forecast layout! Learn more

10-Day Weather Forecast

Advertisements
Track Severe Weather on mobile